Time;durP1;ratioP1;P1;durP2;ratioP2;P2;SDS_P1;SDS_P2;PMS_P1;PMS_P2;Temp;Humidity;BMP_temperature;BMP_pressure;BME280_temperature;BME280_humidity;BME280_pressure;Samples;Min_cycle;Max_cycle;Signal;HPM_P1;HPM_P2
2022/12/20 00:00:26;;;;;;;46.33;24.37;;;-0.90;99.90;;;;;;5030769;28;20025;-82
2022/12/20 00:02:52;;;;;;;39.83;24.97;;;-0.90;99.90;;;;;;5031255;28;20033;-82
2022/12/20 00:05:17;;;;;;;36.93;23.33;;;-0.90;99.90;;;;;;5030276;28;20137;-82
2022/12/20 00:07:43;;;;;;;40.30;23.40;;;-0.90;99.90;;;;;;5031219;28;20116;-82
2022/12/20 00:10:09;;;;;;;39.63;24.23;;;-0.90;99.90;;;;;;5031749;28;20196;-82
2022/12/20 00:12:34;;;;;;;42.33;23.57;;;-0.90;99.90;;;;;;5019390;28;20034;-82
2022/12/20 00:15:00;;;;;;;43.80;25.80;;;-0.90;99.90;;;;;;5030347;28;20107;-82
2022/12/20 00:17:25;;;;;;;42.73;24.10;;;-1.00;99.90;;;;;;5054146;28;20038;-82
2022/12/20 00:19:51;;;;;;;43.50;23.13;;;-0.90;99.90;;;;;;5019280;28;20036;-82
2022/12/20 00:22:16;;;;;;;41.40;23.30;;;-0.90;99.90;;;;;;5023977;28;20025;-82
2022/12/20 00:24:42;;;;;;;41.23;23.73;;;-0.90;99.90;;;;;;5029835;28;20063;-82
2022/12/20 00:27:08;;;;;;;45.27;24.60;;;-0.90;99.90;;;;;;5030909;28;20489;-82
2022/12/20 00:29:34;;;;;;;40.10;22.87;;;-0.90;99.90;;;;;;5030897;28;20025;-82
2022/12/20 00:31:59;;;;;;;38.13;22.33;;;-0.90;99.90;;;;;;5030628;28;20024;-82
2022/12/20 00:34:25;;;;;;;38.77;23.53;;;-0.90;99.90;;;;;;5030860;28;20025;-82
2022/12/20 00:36:50;;;;;;;38.23;22.50;;;-0.90;99.90;;;;;;5030850;28;20029;-82
2022/12/20 00:39:16;;;;;;;35.87;21.03;;;-0.80;99.90;;;;;;5031600;28;20057;-82
2022/12/20 00:41:41;;;;;;;35.60;21.73;;;-0.80;99.90;;;;;;5031110;28;20072;-82
2022/12/20 00:44:07;;;;;;;35.87;22.47;;;-0.80;99.90;;;;;;5031227;28;20076;-82
2022/12/20 00:46:34;;;;;;;38.43;22.10;;;-0.80;99.90;;;;;;5029975;28;20458;-82
2022/12/20 00:49:00;;;;;;;35.67;20.27;;;-0.80;99.90;;;;;;5031850;28;20075;-82
2022/12/20 00:51:28;;;;;;;36.17;22.63;;;-0.80;99.90;;;;;;5031083;28;20518;-82
2022/12/20 00:53:54;;;;;;;37.60;21.27;;;-0.70;99.90;;;;;;5030707;28;20021;-82
2022/12/20 00:56:20;;;;;;;34.70;22.10;;;-0.80;99.90;;;;;;5020112;28;20447;-83
2022/12/20 00:58:46;;;;;;;37.70;21.73;;;-0.80;99.90;;;;;;5030478;28;20078;-81
2022/12/20 01:01:20;;;;;;;39.43;22.97;;;-0.80;99.90;;;;;;5030244;28;20104;-79
2022/12/20 01:03:46;;;;;;;43.33;23.00;;;-0.70;99.90;;;;;;5039267;28;20461;-79
2022/12/20 01:06:12;;;;;;;37.50;22.07;;;-0.70;99.90;;;;;;5035292;28;20036;-79
2022/12/20 01:08:38;;;;;;;36.70;22.47;;;-0.70;99.90;;;;;;5017625;28;20025;-79
2022/12/20 01:11:16;;;;;;;41.30;24.17;;;-0.70;99.90;;;;;;5044226;28;20103;-79
2022/12/20 01:13:45;;;;;;;36.57;21.70;;;-0.70;99.90;;;;;;5037103;28;20132;-79
2022/12/20 01:16:17;;;;;;;38.53;22.17;;;-0.70;99.90;;;;;;5035935;28;20033;-79
2022/12/20 01:18:43;;;;;;;37.57;23.43;;;-0.70;99.90;;;;;;5033338;28;20018;-79
2022/12/20 01:21:11;;;;;;;37.83;22.07;;;-0.70;99.90;;;;;;5019329;28;20441;-79
2022/12/20 01:23:38;;;;;;;37.87;22.23;;;-0.70;99.90;;;;;;5031322;28;20021;-79
2022/12/20 01:26:08;;;;;;;36.47;22.33;;;-0.70;99.90;;;;;;5032302;28;20021;-79
2022/12/20 01:28:35;;;;;;;39.10;21.93;;;-0.70;99.90;;;;;;5035808;28;20055;-79
2022/12/20 01:31:00;;;;;;;37.97;20.97;;;-0.70;99.90;;;;;;5034085;28;20075;-79
2022/12/20 01:33:26;;;;;;;36.13;21.07;;;-0.70;99.90;;;;;;5020205;28;20045;-79
2022/12/20 01:35:59;;;;;;;35.10;21.10;;;-0.70;99.90;;;;;;5041276;28;20078;-79
2022/12/20 01:38:25;;;;;;;33.37;20.53;;;-0.70;99.90;;;;;;5030626;28;20036;-79
2022/12/20 01:40:51;;;;;;;32.53;19.73;;;-0.70;99.90;;;;;;5032616;28;20025;-79
2022/12/20 01:43:18;;;;;;;32.67;18.70;;;-0.70;99.90;;;;;;5035051;28;20171;-78
2022/12/20 01:45:45;;;;;;;31.27;18.37;;;-0.70;99.90;;;;;;5033367;28;20316;-79
2022/12/20 01:48:14;;;;;;;34.97;19.97;;;-0.70;99.90;;;;;;5033191;28;20056;-79
2022/12/20 01:50:40;;;;;;;29.90;18.83;;;-0.70;99.90;;;;;;5032619;28;20064;-79
2022/12/20 01:53:06;;;;;;;29.57;18.23;;;-0.70;99.90;;;;;;5035943;28;20477;-79
2022/12/20 01:55:32;;;;;;;29.63;17.80;;;-0.70;99.90;;;;;;5034481;28;20033;-79
2022/12/20 01:58:11;;;;;;;33.67;18.93;;;-0.70;99.90;;;;;;5034024;28;20033;-79
2022/12/20 02:00:36;;;;;;;35.50;20.10;;;-0.70;99.90;;;;;;5033086;28;20039;-79
2022/12/20 02:03:11;;;;;;;30.93;18.67;;;-0.70;99.90;;;;;;5035623;28;20048;-79
2022/12/20 02:05:40;;;;;;;31.08;19.50;;;-0.70;99.90;;;;;;5019804;28;20029;-79
2022/12/20 02:08:07;;;;;;;35.60;21.23;;;-0.80;99.90;;;;;;5034210;28;20053;-79
2022/12/20 02:10:57;;;;;;;36.30;20.70;;;-0.80;99.90;;;;;;5032731;28;20032;-79
2022/12/20 02:13:42;;;;;;;39.67;22.27;;;-0.80;99.90;;;;;;5034516;28;20024;-79
2022/12/20 02:16:10;;;;;;;36.90;21.27;;;-0.80;99.90;;;;;;5034939;28;20025;-79
2022/12/20 02:18:44;;;;;;;36.13;20.80;;;-0.80;99.90;;;;;;5034963;28;20132;-79
2022/12/20 02:21:21;;;;;;;34.57;21.67;;;-0.80;99.90;;;;;;5033970;28;20140;-82
2022/12/20 02:24:31;;;;;;;38.10;21.10;;;-0.80;99.90;;;;;;5031985;28;20040;-82
2022/12/20 02:27:16;;;;;;;38.97;21.67;;;-0.80;99.90;;;;;;5032307;28;20030;-82
2022/12/20 02:30:02;;;;;;;36.03;22.40;;;-0.80;99.90;;;;;;5032192;28;20481;-82
2022/12/20 02:32:37;;;;;;;36.90;20.50;;;-0.80;99.90;;;;;;5031544;28;20450;-82
2022/12/20 02:35:06;;;;;;;34.45;18.95;;;-0.80;99.90;;;;;;5032987;28;20083;-82
2022/12/20 02:37:32;;;;;;;32.73;19.23;;;-0.80;99.90;;;;;;5033679;28;20025;-82
2022/12/20 02:39:57;;;;;;;31.53;19.07;;;-0.80;99.90;;;;;;5032234;28;20152;-82
2022/12/20 02:42:25;;;;;;;38.83;20.90;;;-0.80;99.90;;;;;;5033183;28;20026;-82
2022/12/20 02:45:15;;;;;;;34.27;19.87;;;-0.80;99.90;;;;;;5033905;28;20029;-82
2022/12/20 02:47:44;;;;;;;33.23;17.90;;;-0.70;99.90;;;;;;5032074;28;20021;-82
2022/12/20 02:50:10;;;;;;;27.63;17.93;;;-0.70;99.90;;;;;;5032069;28;20433;-82
2022/12/20 02:52:38;;;;;;;32.03;18.77;;;-0.70;99.90;;;;;;5033271;28;20070;-82
2022/12/20 02:55:05;;;;;;;30.07;18.57;;;-0.70;99.90;;;;;;5029767;28;20029;-82
2022/12/20 02:58:05;;;;;;;29.00;17.83;;;-0.70;99.90;;;;;;5025304;28;20041;-82
2022/12/20 03:00:36;;;;;;;35.00;19.10;;;-0.60;99.90;;;;;;5011216;28;20112;-81
2022/12/20 03:03:22;;;;;;;28.70;18.33;;;-0.60;99.90;;;;;;5025409;28;20433;-79
2022/12/20 03:05:50;;;;;;;32.90;19.33;;;-0.60;99.90;;;;;;5023748;28;20772;-80
2022/12/20 03:08:16;;;;;;;36.57;22.40;;;-0.60;99.90;;;;;;5025100;28;20160;-79
2022/12/20 03:10:42;;;;;;;37.10;21.80;;;-0.60;99.90;;;;;;5026793;28;20160;-80
2022/12/20 03:13:08;;;;;;;37.03;22.17;;;-0.60;99.90;;;;;;5026488;28;20112;-80
2022/12/20 03:15:34;;;;;;;40.53;21.87;;;-0.60;99.90;;;;;;5023882;28;20052;-80
2022/12/20 03:18:00;;;;;;;36.70;22.87;;;-0.50;99.90;;;;;;5025688;28;20033;-80
2022/12/20 03:20:26;;;;;;;36.50;21.90;;;-0.50;99.90;;;;;;5027359;28;20053;-80
2022/12/20 03:22:51;;;;;;;30.80;19.43;;;-0.50;99.90;;;;;;5026852;28;20143;-80
2022/12/20 03:25:18;;;;;;;31.40;19.03;;;-0.50;99.90;;;;;;5025257;28;20363;-80
2022/12/20 03:27:44;;;;;;;30.90;17.33;;;-0.50;99.90;;;;;;5024738;28;20021;-80
2022/12/20 03:30:10;;;;;;;28.50;18.17;;;-0.50;99.90;;;;;;5025458;28;20038;-79
2022/12/20 03:32:36;;;;;;;27.43;16.63;;;-0.50;99.90;;;;;;5025771;28;21006;-80
2022/12/20 03:35:01;;;;;;;31.83;19.23;;;-0.50;99.90;;;;;;5025158;28;20037;-80
2022/12/20 03:37:27;;;;;;;34.20;20.93;;;-0.50;99.90;;;;;;5025915;28;20095;-80
2022/12/20 03:39:52;;;;;;;31.57;20.23;;;-0.50;99.90;;;;;;5025282;28;20026;-80
2022/12/20 03:42:18;;;;;;;34.07;20.67;;;-0.50;99.90;;;;;;5016312;28;20030;-80
2022/12/20 03:44:43;;;;;;;36.53;21.67;;;-0.50;99.90;;;;;;5031705;28;20028;-80
2022/12/20 03:47:09;;;;;;;34.80;21.10;;;-0.50;99.90;;;;;;5030804;28;20033;-80
2022/12/20 03:49:35;;;;;;;37.93;21.07;;;-0.50;99.90;;;;;;5030931;28;20034;-80
2022/12/20 03:52:00;;;;;;;42.67;24.87;;;-0.50;99.90;;;;;;5021790;28;20053;-80
2022/12/20 03:54:26;;;;;;;38.23;23.40;;;-0.50;99.90;;;;;;5029757;28;20026;-80
2022/12/20 03:56:51;;;;;;;48.80;27.23;;;-0.50;99.90;;;;;;5031134;28;20181;-80
2022/12/20 03:59:17;;;;;;;37.40;23.20;;;-0.50;99.90;;;;;;5031343;28;20079;-80
2022/12/20 04:01:43;;;;;;;37.53;21.23;;;-0.50;99.90;;;;;;5030792;28;20097;-80
2022/12/20 04:04:11;;;;;;;43.67;23.67;;;-0.50;99.90;;;;;;5030174;28;20466;-80
2022/12/20 04:06:36;;;;;;;33.23;18.80;;;-0.50;99.90;;;;;;5017554;28;20498;-80
2022/12/20 04:09:02;;;;;;;29.30;16.33;;;-0.50;99.90;;;;;;5030694;28;20022;-80
2022/12/20 04:11:28;;;;;;;27.67;17.23;;;-0.50;99.90;;;;;;5029850;28;20108;-82
2022/12/20 04:13:53;;;;;;;27.83;16.03;;;-0.50;99.90;;;;;;5028251;28;20051;-82
2022/12/20 04:16:22;;;;;;;28.80;17.63;;;-0.60;99.90;;;;;;5029182;28;20045;-81
2022/12/20 04:18:48;;;;;;;26.13;15.67;;;-0.60;99.90;;;;;;5019474;28;20079;-81
2022/12/20 04:21:14;;;;;;;27.20;16.67;;;-0.50;99.90;;;;;;5028110;28;20025;-82
2022/12/20 04:23:41;;;;;;;33.23;16.30;;;-0.50;99.90;;;;;;5027978;28;20080;-82
2022/12/20 04:26:08;;;;;;;24.40;15.03;;;-0.50;99.90;;;;;;5028616;28;20029;-82
2022/12/20 04:28:34;;;;;;;26.20;15.13;;;-0.50;99.90;;;;;;5026865;28;20040;-82
2022/12/20 04:31:00;;;;;;;26.50;15.50;;;-0.50;99.90;;;;;;5029634;28;20052;-82
2022/12/20 04:33:27;;;;;;;21.47;13.23;;;-0.50;99.90;;;;;;5019138;28;20441;-82
2022/12/20 04:35:53;;;;;;;24.10;13.90;;;-0.50;99.90;;;;;;5028527;28;20112;-82
2022/12/20 04:38:20;;;;;;;23.80;14.27;;;-0.50;99.90;;;;;;5028297;28;20379;-82
2022/12/20 04:40:52;;;;;;;23.10;13.13;;;-0.50;99.90;;;;;;5027830;28;20025;-82
2022/12/20 04:43:18;;;;;;;21.50;13.50;;;-0.50;99.90;;;;;;5026414;28;20025;-82
2022/12/20 04:45:44;;;;;;;23.63;14.50;;;-0.40;99.90;;;;;;5027739;28;20059;-81
2022/12/20 04:48:10;;;;;;;21.67;13.57;;;-0.50;99.90;;;;;;5026995;28;20029;-82
2022/12/20 04:50:36;;;;;;;19.37;13.23;;;-0.40;99.90;;;;;;5027634;28;20053;-82
2022/12/20 04:55:46;;;;;;;22.73;14.13;;;-0.40;99.90;;;;;;5027450;28;20063;-82
2022/12/20 04:58:11;;;;;;;20.07;13.77;;;-0.40;99.90;;;;;;5026208;28;20109;-82
2022/12/20 05:00:37;;;;;;;21.93;13.30;;;-0.40;99.90;;;;;;5014688;28;20029;-82
2022/12/20 05:03:03;;;;;;;23.30;14.13;;;-0.40;99.90;;;;;;5017427;28;20780;-81
2022/12/20 05:05:28;;;;;;;21.73;13.83;;;-0.40;99.90;;;;;;5027225;28;20022;-82
2022/12/20 05:07:54;;;;;;;22.47;13.00;;;-0.30;99.90;;;;;;5026360;28;20120;-79
2022/12/20 05:10:20;;;;;;;18.57;12.33;;;-0.30;99.90;;;;;;5015759;28;20386;-79
2022/12/20 05:12:45;;;;;;;18.83;11.53;;;-0.30;99.90;;;;;;5027919;28;20115;-79
2022/12/20 05:15:11;;;;;;;22.23;11.63;;;-0.30;99.90;;;;;;5028322;28;20033;-79
2022/12/20 05:17:37;;;;;;;20.30;11.93;;;-0.30;99.90;;;;;;5026954;28;20033;-79
2022/12/20 05:20:04;;;;;;;22.50;11.67;;;-0.30;99.90;;;;;;5028517;28;20092;-79
2022/12/20 05:27:58;;;;;;;22.00;11.67;;;-0.20;99.90;;;;;;5026239;28;20052;-79
2022/12/20 05:30:24;;;;;;;18.10;11.40;;;-0.20;99.90;;;;;;5025945;28;20698;-79
2022/12/20 05:32:50;;;;;;;19.80;12.00;;;-0.10;99.90;;;;;;5026645;28;20029;-79
2022/12/20 05:35:16;;;;;;;21.20;11.90;;;-0.10;99.90;;;;;;5025552;28;20406;-79
2022/12/20 05:37:41;;;;;;;18.27;11.67;;;-0.10;99.90;;;;;;5024810;28;20033;-79
2022/12/20 05:40:08;;;;;;;16.60;10.27;;;-0.20;99.90;;;;;;5013211;28;20026;-79
2022/12/20 05:42:34;;;;;;;19.20;11.00;;;-0.20;99.90;;;;;;5024728;28;20021;-79
2022/12/20 05:45:02;;;;;;;16.90;10.60;;;-0.20;99.90;;;;;;5026871;28;20363;-77
2022/12/20 05:47:29;;;;;;;18.07;10.97;;;-0.20;99.90;;;;;;5033055;28;20033;-77
2022/12/20 05:49:55;;;;;;;20.53;10.80;;;-0.20;99.90;;;;;;5053363;28;20029;-76
2022/12/20 05:52:20;;;;;;;19.97;12.20;;;-0.20;99.90;;;;;;5039075;28;20113;-76
2022/12/20 05:54:46;;;;;;;20.97;12.10;;;-0.20;99.90;;;;;;5033219;28;20038;-77
2022/12/20 05:57:13;;;;;;;24.23;12.70;;;-0.20;99.90;;;;;;5033632;28;20073;-77
2022/12/20 05:59:39;;;;;;;20.27;13.43;;;-0.30;99.90;;;;;;5033332;28;20069;-76
2022/12/20 06:02:05;;;;;;;20.33;12.60;;;-0.30;99.90;;;;;;5030585;28;20025;-77
2022/12/20 06:04:31;;;;;;;23.87;12.93;;;-0.30;99.90;;;;;;5027649;28;20087;-76
2022/12/20 06:06:58;;;;;;;21.03;13.10;;;-0.40;99.90;;;;;;5029834;28;20041;-80
2022/12/20 06:09:23;;;;;;;23.30;13.00;;;-0.40;99.90;;;;;;5024667;28;20036;-80
2022/12/20 06:11:49;;;;;;;31.80;13.27;;;-0.40;99.90;;;;;;5025115;28;20116;-80
2022/12/20 06:14:15;;;;;;;21.03;13.10;;;-0.40;99.90;;;;;;5025132;28;20025;-80
2022/12/20 06:16:40;;;;;;;21.93;13.37;;;-0.40;99.90;;;;;;5024991;28;20063;-80
2022/12/20 06:19:06;;;;;;;22.77;12.60;;;-0.40;99.90;;;;;;5027134;28;20420;-80
2022/12/20 06:21:32;;;;;;;21.07;13.07;;;-0.40;99.90;;;;;;5025349;28;20021;-80
2022/12/20 06:23:58;;;;;;;19.97;12.83;;;-0.40;99.90;;;;;;5022159;28;20454;-80
2022/12/20 06:26:23;;;;;;;20.17;13.30;;;-0.40;99.90;;;;;;5023039;28;20028;-80
2022/12/20 06:28:51;;;;;;;23.67;14.00;;;-0.40;99.90;;;;;;5022448;28;20034;-80
2022/12/20 06:31:17;;;;;;;21.37;13.00;;;-0.40;99.90;;;;;;5021349;28;20808;-80
2022/12/20 06:33:43;;;;;;;22.97;12.63;;;-0.40;99.90;;;;;;5021465;28;20128;-80
2022/12/20 06:36:09;;;;;;;22.90;12.97;;;-0.40;99.90;;;;;;5021989;28;20083;-80
2022/12/20 06:38:34;;;;;;;21.83;12.50;;;-0.40;99.90;;;;;;5005517;28;20662;-80
2022/12/20 06:41:00;;;;;;;22.83;14.20;;;-0.40;99.90;;;;;;5019200;28;20482;-80
2022/12/20 06:43:25;;;;;;;23.60;13.43;;;-0.40;99.90;;;;;;5003885;28;20021;-80
2022/12/20 06:45:51;;;;;;;24.73;14.27;;;-0.40;99.90;;;;;;5019155;28;20025;-80
2022/12/20 06:48:17;;;;;;;21.00;12.20;;;-0.40;99.90;;;;;;5010695;28;20040;-80
2022/12/20 06:50:42;;;;;;;18.30;12.30;;;-0.40;99.90;;;;;;5021246;28;20024;-80
2022/12/20 06:53:08;;;;;;;20.53;12.20;;;-0.40;99.90;;;;;;5020463;28;20115;-81
2022/12/20 06:55:34;;;;;;;19.80;12.23;;;-0.40;99.90;;;;;;5020265;28;20053;-80
2022/12/20 06:57:59;;;;;;;22.03;11.67;;;-0.40;99.90;;;;;;5022050;28;20033;-81
2022/12/20 07:00:26;;;;;;;22.57;12.73;;;-0.40;99.90;;;;;;5006281;28;20060;-80
2022/12/20 07:02:51;;;;;;;23.87;12.33;;;-0.30;99.90;;;;;;5011978;28;21742;-81
2022/12/20 07:05:17;;;;;;;24.70;12.33;;;-0.30;99.90;;;;;;4995947;28;20025;-81
2022/12/20 07:07:43;;;;;;;18.43;11.57;;;-0.30;99.90;;;;;;5014971;28;20088;-81
2022/12/20 07:10:09;;;;;;;20.57;11.70;;;-0.30;99.90;;;;;;5014918;28;20032;-80
2022/12/20 07:12:34;;;;;;;27.73;12.77;;;-0.20;99.90;;;;;;5015245;28;20029;-80
2022/12/20 07:15:00;;;;;;;19.20;11.13;;;-0.20;99.90;;;;;;5017116;28;20509;-81
2022/12/20 07:17:28;;;;;;;19.80;11.97;;;-0.20;99.90;;;;;;5022242;28;20029;-77
2022/12/20 07:19:54;;;;;;;22.33;12.23;;;-0.20;99.90;;;;;;5020246;28;20073;-81
2022/12/20 07:22:20;;;;;;;23.00;12.57;;;-0.20;99.90;;;;;;5000267;28;20021;-81
2022/12/20 07:24:46;;;;;;;25.63;13.03;;;-0.20;99.90;;;;;;5012504;28;20773;-81
2022/12/20 07:27:12;;;;;;;25.00;13.23;;;-0.20;99.90;;;;;;5012707;28;20029;-81
2022/12/20 07:29:40;;;;;;;19.47;12.53;;;-0.10;99.90;;;;;;5014617;28;20462;-81
2022/12/20 07:32:06;;;;;;;25.87;13.83;;;-0.10;99.90;;;;;;5014434;28;20030;-80
2022/12/20 07:34:32;;;;;;;19.03;11.67;;;-0.10;99.90;;;;;;5014892;28;20037;-80
2022/12/20 07:36:58;;;;;;;26.33;15.57;;;-0.20;99.90;;;;;;5016404;28;20145;-81
2022/12/20 07:39:23;;;;;;;23.60;14.10;;;-0.10;99.90;;;;;;5017268;28;20026;-81
2022/12/20 07:41:55;;;;;;;27.00;14.80;;;0.00;99.90;;;;;;5015678;28;20029;-80
2022/12/20 07:44:34;;;;;;;26.90;14.67;;;0.00;99.90;;;;;;5016844;28;20037;-81
2022/12/20 07:47:01;;;;;;;27.13;15.50;;;0.10;99.90;;;;;;5017317;28;20037;-82
2022/12/20 07:49:30;;;;;;;23.40;13.93;;;0.10;99.90;;;;;;5018756;28;20986;-79
2022/12/20 07:51:59;;;;;;;21.13;13.17;;;0.20;99.90;;;;;;5017569;28;20080;-77
2022/12/20 07:54:30;;;;;;;21.67;13.83;;;0.20;99.90;;;;;;5004878;28;20044;-76
2022/12/20 07:56:59;;;;;;;22.63;13.97;;;0.20;99.90;;;;;;5023931;28;20030;-76
2022/12/20 07:59:37;;;;;;;22.77;14.00;;;0.30;99.90;;;;;;5023195;28;20379;-76
2022/12/20 08:02:04;;;;;;;19.67;12.70;;;0.30;99.90;;;;;;5007219;28;20108;-77
2022/12/20 08:04:29;;;;;;;20.33;12.20;;;0.40;99.90;;;;;;5019878;28;20021;-77
2022/12/20 08:06:59;;;;;;;17.87;11.90;;;0.40;99.90;;;;;;5022529;28;20044;-76
2022/12/20 08:09:30;;;;;;;24.63;13.83;;;0.40;99.90;;;;;;5025765;28;20588;-76
2022/12/20 08:11:58;;;;;;;30.70;22.17;;;0.50;99.90;;;;;;5024311;28;20037;-77
2022/12/20 08:14:23;;;;;;;30.57;17.07;;;0.50;99.90;;;;;;5029142;28;20431;-76
2022/12/20 08:16:49;;;;;;;22.73;13.17;;;0.60;99.90;;;;;;5029814;28;20039;-76
2022/12/20 08:19:15;;;;;;;21.80;13.20;;;0.60;99.90;;;;;;5032527;28;20021;-77
2022/12/20 08:21:40;;;;;;;21.00;12.90;;;0.60;99.90;;;;;;5035877;28;20035;-77
2022/12/20 08:24:08;;;;;;;18.00;11.43;;;0.70;99.90;;;;;;5036530;28;20021;-76
2022/12/20 08:26:39;;;;;;;18.20;11.80;;;0.70;99.90;;;;;;5037640;28;20034;-75
2022/12/20 08:29:05;;;;;;;18.83;12.00;;;0.80;99.90;;;;;;5032506;28;20100;-79
2022/12/20 08:31:31;;;;;;;29.20;15.73;;;0.80;99.90;;;;;;5007412;28;20048;-76
2022/12/20 08:34:05;;;;;;;35.20;16.07;;;0.90;99.90;;;;;;5035915;28;20577;-76
2022/12/20 08:36:31;;;;;;;23.98;13.40;;;0.90;99.90;;;;;;5010662;28;20041;-81
2022/12/20 08:38:57;;;;;;;27.00;13.00;;;0.90;99.90;;;;;;5016621;28;20409;-81
2022/12/20 08:41:22;;;;;;;41.57;19.00;;;0.90;99.90;;;;;;5026223;28;20765;-81
2022/12/20 08:43:48;;;;;;;30.67;13.60;;;1.00;99.90;;;;;;5035310;28;20025;-81
2022/12/20 08:46:13;;;;;;;19.20;9.90;;;1.00;99.90;;;;;;5034700;28;20084;-78
2022/12/20 08:48:39;;;;;;;18.73;11.20;;;1.00;99.90;;;;;;5034762;28;20140;-76
2022/12/20 08:51:08;;;;;;;18.57;9.60;;;1.10;99.90;;;;;;5038534;28;20013;-81
2022/12/20 08:53:34;;;;;;;62.77;23.17;;;1.10;99.90;;;;;;5036394;28;20100;-76
2022/12/20 08:56:08;;;;;;;64.93;25.70;;;1.10;99.90;;;;;;5037963;28;21007;-76
2022/12/20 08:58:34;;;;;;;47.37;20.37;;;1.20;99.90;;;;;;5045817;28;20428;-76
2022/12/20 09:01:02;;;;;;;35.63;15.17;;;1.30;99.90;;;;;;5036927;28;20108;-76
2022/12/20 09:03:32;;;;;;;28.50;14.23;;;1.40;99.90;;;;;;5045946;28;20025;-76
2022/12/20 09:05:58;;;;;;;20.93;10.93;;;1.50;99.90;;;;;;5038237;28;20458;-76
2022/12/20 09:08:25;;;;;;;22.80;11.37;;;1.50;99.90;;;;;;5020011;28;20335;-77
2022/12/20 09:10:51;;;;;;;23.73;11.00;;;1.60;99.90;;;;;;5032884;28;20045;-77
2022/12/20 09:13:17;;;;;;;21.17;10.60;;;1.70;99.90;;;;;;5043311;28;20029;-77
2022/12/20 09:15:43;;;;;;;18.30;9.47;;;1.80;99.90;;;;;;5035382;28;20105;-77
2022/12/20 09:18:09;;;;;;;18.87;9.83;;;1.90;99.90;;;;;;5030177;28;20120;-77
2022/12/20 09:20:35;;;;;;;24.23;10.67;;;2.00;99.90;;;;;;5029584;28;20419;-77
2022/12/20 09:23:01;;;;;;;19.13;9.70;;;2.10;99.90;;;;;;5029775;28;20091;-77
2022/12/20 09:25:27;;;;;;;22.03;11.70;;;2.20;99.90;;;;;;5018479;28;20029;-77
2022/12/20 09:27:55;;;;;;;18.73;10.10;;;2.20;99.90;;;;;;5028374;28;20030;-77
2022/12/20 09:30:21;;;;;;;19.70;10.73;;;2.20;99.90;;;;;;5031589;28;20018;-77
2022/12/20 09:32:47;;;;;;;15.87;9.50;;;2.30;99.90;;;;;;5016654;28;20470;-77
2022/12/20 09:35:12;;;;;;;15.47;10.30;;;2.30;99.90;;;;;;5019495;28;20083;-77
2022/12/20 09:37:38;;;;;;;19.47;10.37;;;2.40;99.90;;;;;;5030016;28;20097;-77
2022/12/20 09:40:04;;;;;;;23.97;11.57;;;2.40;99.90;;;;;;5028196;28;20071;-77
2022/12/20 09:42:30;;;;;;;24.70;12.00;;;2.40;99.90;;;;;;5028827;28;20017;-77
2022/12/20 09:45:14;;;;;;;28.40;12.73;;;2.50;99.90;;;;;;5029322;28;20040;-77
2022/12/20 09:47:40;;;;;;;22.00;12.10;;;2.50;99.90;;;;;;5032514;28;20033;-77
2022/12/20 09:50:13;;;;;;;17.90;10.90;;;2.40;99.90;;;;;;5025305;28;20025;-77
2022/12/20 09:52:59;;;;;;;21.83;11.20;;;2.40;99.90;;;;;;5017205;28;20112;-77
2022/12/20 09:55:42;;;;;;;17.67;10.47;;;2.40;99.90;;;;;;5021632;28;20032;-77
2022/12/20 09:58:22;;;;;;;18.60;10.73;;;2.40;99.90;;;;;;5036182;28;20041;-77
2022/12/20 10:00:49;;;;;;;19.37;9.67;;;2.50;99.90;;;;;;5031050;28;20025;-77
2022/12/20 10:03:31;;;;;;;17.17;10.77;;;2.50;99.90;;;;;;5053273;28;20382;-77
2022/12/20 10:06:24;;;;;;;18.77;10.37;;;2.60;99.90;;;;;;5035916;28;20013;-77
2022/12/20 10:09:04;;;;;;;17.03;10.03;;;2.60;99.90;;;;;;5020023;28;20368;-77
2022/12/20 10:11:56;;;;;;;18.70;11.63;;;2.70;99.90;;;;;;5033815;28;20418;-78
2022/12/20 10:14:43;;;;;;;19.73;11.33;;;2.70;99.90;;;;;;5032635;28;20029;-77
2022/12/20 10:17:18;;;;;;;18.43;11.43;;;2.70;99.90;;;;;;5018645;28;20120;-77
2022/12/20 10:19:59;;;;;;;;;;;2.70;99.90;;;;;;5032778;28;20029;-77
2022/12/20 10:22:31;;;;;;;17.43;10.67;;;2.70;99.90;;;;;;5031399;28;19912;-77
2022/12/20 10:25:19;;;;;;;20.47;10.27;;;2.80;99.90;;;;;;5030565;28;20021;-77
2022/12/20 10:27:47;;;;;;;19.43;10.73;;;2.80;99.90;;;;;;5029604;28;20037;-77
2022/12/20 10:30:15;;;;;;;17.63;10.40;;;2.90;99.90;;;;;;5014183;28;20113;-77
2022/12/20 10:32:44;;;;;;;18.67;12.80;;;2.90;99.90;;;;;;5018086;28;20430;-77
2022/12/20 10:35:10;;;;;;;19.63;11.13;;;3.00;99.90;;;;;;5028573;28;20018;-77
2022/12/20 10:37:37;;;;;;;18.87;11.10;;;3.00;99.90;;;;;;5028570;28;20052;-77
2022/12/20 10:40:02;;;;;;;24.60;12.23;;;3.00;99.90;;;;;;5029963;28;20096;-76
2022/12/20 10:42:39;;;;;;;18.47;11.40;;;3.00;99.90;;;;;;5024428;28;20128;-77
2022/12/20 10:45:14;;;;;;;20.13;12.50;;;3.00;99.90;;;;;;5031721;28;20366;-77
2022/12/20 10:47:44;;;;;;;20.10;11.85;;;3.10;99.90;;;;;;5031825;28;20025;-76
2022/12/20 10:50:17;;;;;;;24.43;12.77;;;3.00;99.90;;;;;;5033971;28;21486;-77
2022/12/20 10:52:44;;;;;;;27.30;14.63;;;3.00;99.90;;;;;;5035302;28;20032;-77
2022/12/20 10:55:32;;;;;;;26.77;14.97;;;3.00;99.90;;;;;;5031250;28;20087;-77
2022/12/20 10:58:03;;;;;;;29.47;15.27;;;3.00;99.90;;;;;;5036263;28;20057;-77
2022/12/20 11:00:29;;;;;;;23.93;14.90;;;3.00;99.90;;;;;;5035072;28;20357;-77
2022/12/20 11:03:23;;;;;;;22.13;14.30;;;3.00;99.90;;;;;;5031878;28;20421;-77
2022/12/20 11:05:58;;;;;;;27.00;15.43;;;3.00;99.90;;;;;;5032886;28;20040;-77
2022/12/20 11:08:26;;;;;;;26.52;14.55;;;3.10;99.90;;;;;;5033178;28;20490;-77
2022/12/20 11:11:17;;;;;;;23.10;14.37;;;3.10;99.90;;;;;;5034338;28;20463;-77
2022/12/20 11:13:44;;;;;;;31.93;17.00;;;3.10;99.90;;;;;;5054396;28;20025;-77
2022/12/20 11:16:29;;;;;;;29.47;16.33;;;3.10;99.90;;;;;;5039095;28;20027;-77
2022/12/20 11:19:39;;;;;;;30.70;19.38;;;3.10;99.90;;;;;;5033724;28;20033;-77
2022/12/20 11:22:26;;;;;;;29.17;17.87;;;3.20;99.90;;;;;;5033771;28;20022;-78
2022/12/20 11:25:13;;;;;;;29.90;19.10;;;3.20;99.90;;;;;;5037996;28;20018;-78
2022/12/20 11:28:18;;;;;;;34.30;20.00;;;3.20;99.90;;;;;;5035072;28;20017;-78
2022/12/20 11:31:08;;;;;;;31.37;20.63;;;3.20;99.90;;;;;;5034583;28;20014;-78
2022/12/20 11:33:45;;;;;;;31.27;20.10;;;3.20;99.90;;;;;;5033758;28;20021;-78
2022/12/20 11:36:37;;;;;;;39.93;23.33;;;3.30;99.90;;;;;;5032791;28;20044;-79
2022/12/20 11:39:21;;;;;;;37.67;21.37;;;3.50;99.90;;;;;;5033311;28;20029;-79
2022/12/20 11:42:04;;;;;;;30.93;20.63;;;3.60;99.90;;;;;;5032840;28;20018;-79
2022/12/20 11:44:46;;;;;;;28.87;20.50;;;3.70;99.90;;;;;;5033464;28;20013;-79
2022/12/20 11:47:45;;;;;;;31.33;20.00;;;3.80;99.90;;;;;;5028338;28;20021;-79
2022/12/20 11:50:23;;;;;;;36.47;23.27;;;3.90;99.90;;;;;;5032827;28;20056;-83
2022/12/20 11:52:59;;;;;;;35.87;22.00;;;4.00;99.90;;;;;;5058253;28;20363;-79
2022/12/20 11:55:33;;;;;;;32.33;20.40;;;4.00;99.90;;;;;;5032723;28;20045;-79
2022/12/20 11:58:19;;;;;;;51.60;30.67;;;4.00;99.90;;;;;;5031404;28;20478;-79
2022/12/20 12:01:00;;;;;;;37.23;24.63;;;4.00;99.90;;;;;;5018133;28;20385;-79
2022/12/20 12:03:33;;;;;;;36.70;21.30;;;4.00;99.90;;;;;;5029490;28;20028;-79
2022/12/20 12:06:07;;;;;;;35.43;21.33;;;4.00;99.90;;;;;;5026188;28;20056;-79
2022/12/20 12:08:49;;;;;;;38.07;23.57;;;3.90;99.90;;;;;;5026190;28;20095;-80
2022/12/20 12:11:25;;;;;;;40.17;23.80;;;3.90;99.90;;;;;;5026544;28;20049;-79
2022/12/20 12:13:52;;;;;;;35.63;23.10;;;3.90;99.90;;;;;;5026999;28;20084;-79
2022/12/20 12:16:41;;;;;;;39.30;26.47;;;3.80;99.90;;;;;;5026613;28;20048;-79
2022/12/20 12:19:12;;;;;;;42.20;24.27;;;3.80;99.90;;;;;;5028039;28;20068;-79
2022/12/20 12:21:54;;;;;;;36.80;23.27;;;3.70;99.90;;;;;;5025860;28;20123;-79
2022/12/20 12:24:52;;;;;;;36.17;22.90;;;3.70;99.90;;;;;;5009488;28;20484;-79
2022/12/20 12:27:27;;;;;;;41.00;23.57;;;3.70;99.90;;;;;;5007867;28;20163;-80
2022/12/20 12:29:55;;;;;;;;;;;3.70;99.90;;;;;;5028925;28;20120;-80
2022/12/20 12:32:53;;;;;;;39.23;24.70;;;3.60;99.90;;;;;;5026071;28;19961;-80
2022/12/20 12:36:02;;;;;;;42.87;27.10;;;3.60;99.90;;;;;;5025371;28;20041;-79
2022/12/20 12:38:39;;;;;;;40.90;24.80;;;3.70;99.90;;;;;;5025909;28;20550;-79
2022/12/20 12:41:04;;;;;;;42.03;25.07;;;3.70;99.90;;;;;;5026894;28;20112;-79
2022/12/20 12:43:53;;;;;;;41.03;26.70;;;3.70;99.90;;;;;;5010612;28;20710;-79
2022/12/20 12:46:23;;;;;;;38.50;23.53;;;3.70;99.90;;;;;;5028396;28;20159;-80
2022/12/20 12:49:09;;;;;;;36.83;24.00;;;3.70;99.90;;;;;;5026348;28;20114;-80
2022/12/20 12:51:36;;;;;;;;;;;3.70;99.90;;;;;;5026806;28;20071;-80
2022/12/20 12:54:28;;;;;;;38.97;24.67;;;3.60;99.90;;;;;;5027192;28;20377;-80
2022/12/20 12:57:20;;;;;;;46.90;25.57;;;3.60;99.90;;;;;;5028041;28;20346;-80